createdAt,value
2024-02-24T00:00:50.769Z,4.85
2024-02-24T00:03:19.384Z,2.88
2024-02-24T00:05:46.937Z,1.67
2024-02-24T00:08:13.805Z,3.00
2024-02-24T00:10:40.747Z,4.65
2024-02-24T00:13:09.207Z,3.15
2024-02-24T00:15:35.999Z,1.83
2024-02-24T00:18:04.766Z,4.47
2024-02-24T00:20:31.615Z,2.40
2024-02-24T00:22:58.682Z,3.40
2024-02-24T00:25:25.340Z,3.00
2024-02-24T00:27:52.736Z,4.57
2024-02-24T00:30:19.523Z,3.85
2024-02-24T00:32:46.331Z,4.95
2024-02-24T00:35:13.374Z,2.45
2024-02-24T00:37:40.108Z,2.63
2024-02-24T00:40:07.844Z,3.05
2024-02-24T00:42:34.767Z,0.95
2024-02-24T00:45:01.713Z,3.28
2024-02-24T00:47:28.608Z,2.45
2024-02-24T00:49:55.306Z,2.60
2024-02-24T00:52:21.983Z,2.63
2024-02-24T00:54:49.282Z,5.15
2024-02-24T00:57:16.150Z,2.38
2024-02-24T00:59:43.494Z,1.55
2024-02-24T01:02:10.968Z,4.13
2024-02-24T01:04:38.510Z,2.40
2024-02-24T01:07:05.549Z,6.60
2024-02-24T01:09:34.591Z,3.17
2024-02-24T01:12:03.904Z,2.10
2024-02-24T01:14:31.437Z,3.75
2024-02-24T01:16:58.633Z,3.08
2024-02-24T01:19:25.936Z,3.63
2024-02-24T01:21:55.214Z,5.97
2024-02-24T01:24:23.136Z,2.85
2024-02-24T01:26:50.253Z,4.28
2024-02-24T01:29:17.179Z,1.73
2024-02-24T01:31:44.234Z,3.72
2024-02-24T01:34:11.117Z,1.92
2024-02-24T01:36:38.023Z,5.10
2024-02-24T01:39:05.090Z,3.88
2024-02-24T01:41:35.137Z,6.97
2024-02-24T01:44:02.296Z,2.60
2024-02-24T01:46:33.471Z,2.53
2024-02-24T01:49:01.200Z,3.67
2024-02-24T01:51:33.564Z,6.13
2024-02-24T01:54:01.704Z,7.97
2024-02-24T01:56:28.967Z,4.20
2024-02-24T01:58:59.298Z,3.50
2024-02-24T02:01:26.506Z,5.28
2024-02-24T02:03:56.330Z,6.10
2024-02-24T02:06:26.646Z,5.07
2024-02-24T02:08:53.926Z,4.50
2024-02-24T02:11:21.200Z,5.28
2024-02-24T02:13:53.827Z,5.60
2024-02-24T02:16:21.656Z,4.22
2024-02-24T02:18:48.701Z,4.82
2024-02-24T02:21:20.973Z,5.32
2024-02-24T02:23:48.766Z,4.30
2024-02-24T02:26:24.038Z,3.95
2024-02-24T02:28:51.074Z,7.93
2024-02-24T02:31:18.817Z,5.75
2024-02-24T02:33:46.713Z,5.78
2024-02-24T02:36:13.922Z,5.47
2024-02-24T02:38:41.024Z,6.13
2024-02-24T02:41:08.293Z,5.38
2024-02-24T02:43:35.720Z,4.88
2024-02-24T02:46:07.501Z,5.78
2024-02-24T02:48:36.390Z,5.55
2024-02-24T02:51:03.841Z,4.88
2024-02-24T02:53:31.146Z,5.35
2024-02-24T02:55:58.353Z,4.88
2024-02-24T02:58:25.590Z,7.07
2024-02-24T03:00:53.036Z,7.00
2024-02-24T03:03:20.190Z,7.55
2024-02-24T03:05:47.490Z,4.95
2024-02-24T03:08:14.973Z,4.97
2024-02-24T03:10:42.458Z,4.90
2024-02-24T03:13:09.440Z,3.85
2024-02-24T03:15:37.356Z,7.95
2024-02-24T03:18:04.641Z,6.53
2024-02-24T03:20:34.571Z,4.50
2024-02-24T03:23:02.765Z,7.45
2024-02-24T03:25:29.951Z,4.70
2024-02-24T03:28:25.380Z,4.93
2024-02-24T03:31:11.931Z,6.97
2024-02-24T03:33:39.926Z,4.50
2024-02-24T03:36:22.536Z,7.30
2024-02-24T03:38:52.699Z,6.07
2024-02-24T03:45:38.377Z,3.92
2024-02-24T03:48:35.726Z,6.88
2024-02-24T03:52:56.157Z,6.85
2024-02-24T04:07:39.112Z,9.35
2024-02-24T04:10:37.043Z,4.90
2024-02-24T04:44:06.056Z,9.80
2024-02-24T04:46:41.050Z,12.15
2024-02-24T04:49:43.109Z,11.77
2024-02-24T04:52:15.835Z,10.88
2024-02-24T04:55:09.795Z,10.48
2024-02-24T05:08:14.946Z,7.65
2024-02-24T05:10:41.764Z,9.98
2024-02-24T05:13:08.787Z,9.95
2024-02-24T05:15:35.347Z,14.57
2024-02-24T05:18:02.858Z,16.13
2024-02-24T05:20:30.315Z,13.02
2024-02-24T05:22:56.927Z,11.88
2024-02-24T05:25:23.783Z,11.15
2024-02-24T05:27:50.489Z,12.70
2024-02-24T05:30:17.188Z,13.70
2024-02-24T05:32:44.239Z,11.18
2024-02-24T05:35:10.983Z,16.67
2024-02-24T05:37:37.561Z,9.05
2024-02-24T05:40:04.510Z,17.20
2024-02-24T05:42:31.442Z,9.00
2024-02-24T05:44:58.785Z,7.82
2024-02-24T05:47:26.442Z,12.63
2024-02-24T05:49:53.090Z,12.93
2024-02-24T05:52:20.900Z,11.75
2024-02-24T05:54:49.269Z,11.25
2024-02-24T05:57:16.604Z,17.67
2024-02-24T05:59:43.274Z,14.00
2024-02-24T06:02:10.112Z,11.35
2024-02-24T06:04:37.685Z,9.55
2024-02-24T06:07:07.994Z,11.38
2024-02-24T06:09:34.848Z,9.48
2024-02-24T06:12:02.385Z,12.63
2024-02-24T06:14:29.202Z,11.73
2024-02-24T06:16:55.789Z,10.30
2024-02-24T06:19:22.720Z,10.07
2024-02-24T06:21:50.504Z,12.45
2024-02-24T06:24:17.137Z,13.60
2024-02-24T06:26:44.985Z,12.05
2024-02-24T06:29:13.244Z,15.60
2024-02-24T06:31:40.279Z,14.40
2024-02-24T06:34:08.838Z,9.52
2024-02-24T06:36:35.786Z,11.63
2024-02-24T06:39:03.030Z,11.95
2024-02-24T06:41:29.944Z,10.02
2024-02-24T06:43:57.801Z,7.45
2024-02-24T06:46:25.473Z,7.55
2024-02-24T06:48:52.334Z,8.75
2024-02-24T06:51:19.002Z,8.93
2024-02-24T06:53:45.815Z,7.00
2024-02-24T06:56:12.470Z,8.77
2024-02-24T06:58:39.225Z,7.72
2024-02-24T07:01:06.659Z,8.10
2024-02-24T07:03:34.686Z,4.93
2024-02-24T07:06:03.119Z,8.10
2024-02-24T07:08:30.092Z,8.55
2024-02-24T07:10:56.883Z,7.55
2024-02-24T07:13:23.769Z,5.65
2024-02-24T07:15:50.379Z,7.07
2024-02-24T07:18:18.558Z,6.07
2024-02-24T07:20:45.983Z,7.68
2024-02-24T07:23:12.896Z,9.98
2024-02-24T07:25:40.196Z,8.25
2024-02-24T07:28:07.452Z,4.50
2024-02-24T07:30:34.262Z,6.00
2024-02-24T07:33:01.954Z,6.45
2024-02-24T07:35:30.151Z,5.70
2024-02-24T07:37:56.822Z,4.88
2024-02-24T07:40:23.443Z,4.82
2024-02-24T07:42:51.221Z,5.55
2024-02-24T07:45:18.145Z,5.78
2024-02-24T07:47:47.557Z,4.00
2024-02-24T07:50:14.796Z,4.38
2024-02-24T07:52:43.230Z,6.40
2024-02-24T07:55:10.937Z,5.85
2024-02-24T07:57:37.827Z,4.72
2024-02-24T08:00:06.586Z,5.13
2024-02-24T08:02:34.067Z,4.30
2024-02-24T08:05:01.466Z,6.20
2024-02-24T08:07:50.336Z,3.08
2024-02-24T08:10:17.539Z,4.20
2024-02-24T08:12:44.577Z,6.72
2024-02-24T08:15:12.020Z,3.60
2024-02-24T08:17:40.612Z,3.85
2024-02-24T08:20:09.221Z,5.03
2024-02-24T08:22:36.377Z,4.15
2024-02-24T08:25:03.286Z,3.70
2024-02-24T08:27:30.004Z,4.05
2024-02-24T08:29:56.972Z,3.60
2024-02-24T08:32:24.171Z,3.88
2024-02-24T08:34:51.393Z,4.40
2024-02-24T08:37:18.038Z,4.55
2024-02-24T08:39:48.147Z,5.20
2024-02-24T08:42:14.734Z,4.28
2024-02-24T08:44:41.418Z,4.78
2024-02-24T08:47:08.244Z,3.92
2024-02-24T08:49:35.517Z,5.40
2024-02-24T08:52:02.642Z,4.15
2024-02-24T08:54:29.626Z,3.28
2024-02-24T08:56:56.421Z,3.83
2024-02-24T08:59:23.813Z,2.80
2024-02-24T09:01:55.312Z,4.63
2024-02-24T09:04:22.111Z,5.80
2024-02-24T09:06:51.755Z,3.25
2024-02-24T09:09:18.995Z,3.92
2024-02-24T09:11:47.689Z,4.28
2024-02-24T09:14:14.854Z,6.57
2024-02-24T09:16:41.481Z,3.97
2024-02-24T09:19:08.179Z,5.68
2024-02-24T09:21:34.861Z,5.38
2024-02-24T09:24:01.644Z,5.93
2024-02-24T09:26:28.563Z,5.10
2024-02-24T09:28:56.263Z,5.22
2024-02-24T09:31:23.837Z,6.22
2024-02-24T09:33:56.804Z,5.25
2024-02-24T09:36:27.127Z,5.47
2024-02-24T09:38:54.776Z,4.22
2024-02-24T09:41:21.499Z,4.97
2024-02-24T09:43:48.387Z,6.85
2024-02-24T09:46:18.664Z,6.22
2024-02-24T09:48:48.193Z,7.35
2024-02-24T09:51:15.259Z,6.82
2024-02-24T09:53:42.052Z,6.30
2024-02-24T09:56:11.525Z,5.93
2024-02-24T09:58:40.020Z,6.68
2024-02-24T10:01:06.927Z,7.45
2024-02-24T10:03:34.500Z,8.43
2024-02-24T10:06:01.238Z,5.97
2024-02-24T10:08:28.633Z,7.32
2024-02-24T10:10:56.244Z,6.30
2024-02-24T10:13:23.065Z,6.47
2024-02-24T10:15:49.957Z,6.78
2024-02-24T10:18:19.647Z,7.78
2024-02-24T10:20:46.622Z,7.47
2024-02-24T10:23:14.164Z,6.38
2024-02-24T10:25:42.896Z,7.03
2024-02-24T10:28:09.590Z,6.13
2024-02-24T10:30:36.285Z,9.40
2024-02-24T10:33:04.829Z,7.20
2024-02-24T10:35:33.397Z,6.38
2024-02-24T10:38:17.874Z,9.30
2024-02-24T10:40:52.006Z,5.97
2024-02-24T10:43:21.648Z,5.95
2024-02-24T10:45:48.317Z,5.93
2024-02-24T10:48:15.111Z,7.45
2024-02-24T10:50:45.194Z,7.05
2024-02-24T10:53:15.608Z,5.38
2024-02-24T10:55:44.074Z,5.57
2024-02-24T10:58:11.308Z,5.22
2024-02-24T11:00:46.254Z,5.25
2024-02-24T11:03:15.021Z,7.97
2024-02-24T11:05:47.137Z,5.53
2024-02-24T11:08:49.947Z,5.80
2024-02-24T11:11:16.952Z,5.32
2024-02-24T11:13:55.938Z,6.70
2024-02-24T11:16:34.905Z,6.18
2024-02-24T11:19:02.822Z,5.40
2024-02-24T11:22:04.566Z,7.43
2024-02-24T11:24:34.427Z,6.80
2024-02-24T11:27:02.407Z,4.30
2024-02-24T11:29:50.649Z,4.43
2024-02-24T11:32:18.129Z,5.90
2024-02-24T11:34:46.667Z,5.15
2024-02-24T11:37:18.812Z,7.72
2024-02-24T11:39:48.081Z,5.47
2024-02-24T11:42:15.546Z,7.40
2024-02-24T11:44:56.169Z,4.85
2024-02-24T11:47:22.863Z,4.35
2024-02-24T11:49:52.262Z,6.07
2024-02-24T11:52:19.491Z,6.10
2024-02-24T11:54:46.943Z,5.18
2024-02-24T11:57:14.657Z,4.65
2024-02-24T11:59:42.308Z,6.40
2024-02-24T12:02:09.013Z,4.35
2024-02-24T12:04:36.753Z,5.78
2024-02-24T12:07:05.735Z,4.28
2024-02-24T12:09:33.023Z,4.05
2024-02-24T12:12:00.785Z,3.53
2024-02-24T12:14:31.526Z,5.20
2024-02-24T12:16:59.587Z,4.18
2024-02-24T12:19:29.924Z,5.15
2024-02-24T12:21:56.616Z,6.10
2024-02-24T12:24:30.132Z,4.85
2024-02-24T12:27:02.121Z,3.58
2024-02-24T12:29:30.977Z,5.07
2024-02-24T12:31:58.042Z,3.53
2024-02-24T12:34:26.118Z,4.32
2024-02-24T12:36:57.342Z,3.45
2024-02-24T12:39:25.525Z,2.25
2024-02-24T12:41:55.426Z,5.20
2024-02-24T12:44:24.723Z,2.05
2024-02-24T12:46:51.422Z,1.15
2024-02-24T12:49:18.084Z,1.75
2024-02-24T12:51:54.073Z,1.92
2024-02-24T12:54:20.994Z,1.98
2024-02-24T12:56:47.608Z,1.95
2024-02-24T12:59:20.154Z,2.55
2024-02-24T13:01:47.039Z,2.50
2024-02-24T13:04:14.029Z,3.58
2024-02-24T13:06:41.367Z,3.25
2024-02-24T13:09:11.081Z,3.63
2024-02-24T13:11:38.278Z,3.17
2024-02-24T13:14:04.925Z,2.25
2024-02-24T13:16:31.577Z,1.83
2024-02-24T13:18:58.676Z,2.13
2024-02-24T13:21:25.789Z,3.30
2024-02-24T13:23:54.479Z,2.78
2024-02-24T13:26:21.429Z,2.40
2024-02-24T13:28:48.306Z,2.28
2024-02-24T13:31:15.456Z,3.30
2024-02-24T13:33:42.242Z,2.30
2024-02-24T13:36:09.022Z,3.45
2024-02-24T13:38:35.711Z,2.20
2024-02-24T13:41:02.339Z,4.10
2024-02-24T13:43:28.968Z,2.45
2024-02-24T13:45:55.611Z,5.70
2024-02-24T13:48:22.500Z,2.22
2024-02-24T13:50:49.140Z,3.22
2024-02-24T13:53:15.840Z,3.70
2024-02-24T13:55:42.482Z,7.03
2024-02-24T13:58:09.061Z,4.25
2024-02-24T14:00:35.685Z,5.15
2024-02-24T14:03:03.844Z,3.38
2024-02-24T14:05:30.696Z,4.65
2024-02-24T14:07:58.598Z,3.53
2024-02-24T14:10:25.217Z,4.03
2024-02-24T14:12:51.814Z,4.68
2024-02-24T14:15:20.692Z,4.25
2024-02-24T14:17:47.413Z,6.60
2024-02-24T14:20:20.225Z,4.88
2024-02-24T14:22:52.170Z,4.53
2024-02-24T14:25:19.899Z,5.45
2024-02-24T14:27:46.464Z,3.85
2024-02-24T14:30:14.408Z,6.70
2024-02-24T14:32:41.025Z,5.35
2024-02-24T14:35:15.214Z,5.35
2024-02-24T14:37:41.896Z,4.15
2024-02-24T14:40:09.368Z,5.88
2024-02-24T14:42:35.978Z,2.63
2024-02-24T14:45:03.038Z,3.08
2024-02-24T14:47:30.978Z,1.88
2024-02-24T14:49:58.198Z,3.28
2024-02-24T14:52:25.806Z,3.13
2024-02-24T14:54:53.292Z,4.45
2024-02-24T14:57:20.239Z,3.05
2024-02-24T14:59:47.012Z,4.25
2024-02-24T15:02:22.395Z,3.15
2024-02-24T15:04:57.078Z,3.35
2024-02-24T15:07:23.724Z,3.50
2024-02-24T15:09:50.696Z,4.40
2024-02-24T15:12:17.392Z,3.50
2024-02-24T15:14:44.197Z,4.35
2024-02-24T15:17:12.228Z,5.00
2024-02-24T15:19:41.899Z,5.82
2024-02-24T15:22:08.943Z,6.05
2024-02-24T15:24:35.784Z,5.50
2024-02-24T15:27:03.100Z,4.90
2024-02-24T15:29:30.561Z,5.10
2024-02-24T15:31:57.540Z,4.43
2024-02-24T15:34:26.413Z,3.95
2024-02-24T15:36:53.493Z,4.97
2024-02-24T15:39:20.656Z,5.72
2024-02-24T15:41:48.712Z,5.07
2024-02-24T15:44:15.611Z,5.97
2024-02-24T15:46:47.702Z,4.50
2024-02-24T15:49:14.814Z,5.18
2024-02-24T15:51:41.685Z,3.30
2024-02-24T15:54:08.475Z,4.60
2024-02-24T15:56:35.325Z,4.65
2024-02-24T15:59:02.347Z,3.38
2024-02-24T16:01:29.607Z,4.22
2024-02-24T16:03:56.555Z,2.63
2024-02-24T16:08:59.694Z,4.68
2024-02-24T16:11:26.478Z,4.88
2024-02-24T16:13:53.133Z,4.22
2024-02-24T16:16:22.662Z,4.38
2024-02-24T16:18:49.398Z,7.43
2024-02-24T16:21:16.212Z,4.20
2024-02-24T16:23:43.047Z,4.47
2024-02-24T16:26:09.770Z,2.90
2024-02-24T16:28:36.387Z,3.78
2024-02-24T16:31:04.018Z,4.57
2024-02-24T16:33:31.163Z,4.85
2024-02-24T16:35:58.048Z,6.30
2024-02-24T16:38:24.880Z,4.55
2024-02-24T16:40:51.594Z,3.85
2024-02-24T16:43:18.211Z,4.70
2024-02-24T16:45:44.933Z,4.22
2024-02-24T16:48:16.294Z,4.50
2024-02-24T16:53:10.243Z,7.15
2024-02-24T16:55:36.836Z,2.85
2024-02-24T16:58:03.643Z,2.30
2024-02-24T17:00:30.451Z,3.17
2024-02-24T17:02:57.439Z,3.00
2024-02-24T17:05:24.296Z,3.95
2024-02-24T17:07:51.018Z,2.83
2024-02-24T17:10:17.752Z,2.78
2024-02-24T17:12:44.658Z,2.88
2024-02-24T17:15:12.130Z,3.40
2024-02-24T17:17:38.894Z,3.72
2024-02-24T17:20:06.815Z,4.57
2024-02-24T17:22:34.124Z,3.85
2024-02-24T17:25:00.834Z,3.92
2024-02-24T17:27:27.531Z,7.00
2024-02-24T17:29:54.276Z,5.50
2024-02-24T17:32:21.015Z,4.35
2024-02-24T17:34:47.778Z,4.53
2024-02-24T17:37:14.457Z,5.80
2024-02-24T17:39:44.269Z,6.78
2024-02-24T17:42:12.378Z,6.30
2024-02-24T17:44:39.167Z,6.03
2024-02-24T17:47:06.004Z,6.50
2024-02-24T17:49:33.817Z,5.50
2024-02-24T17:52:00.708Z,7.05
2024-02-24T17:54:28.853Z,6.82
2024-02-24T17:56:57.483Z,7.38
2024-02-24T17:59:24.292Z,8.68
2024-02-24T18:01:50.963Z,9.68
2024-02-24T18:04:19.759Z,8.35
2024-02-24T18:06:46.759Z,8.05
2024-02-24T18:09:13.674Z,7.50
2024-02-24T18:11:40.404Z,7.07
2024-02-24T18:14:07.066Z,9.13
2024-02-24T18:16:33.982Z,8.07
2024-02-24T18:19:01.071Z,8.38
2024-02-24T18:21:27.901Z,7.00
2024-02-24T18:23:54.667Z,10.68
2024-02-24T18:26:21.670Z,7.35
2024-02-24T18:28:48.287Z,8.18
2024-02-24T18:31:14.978Z,7.35
2024-02-24T18:33:41.950Z,8.00
2024-02-24T18:36:08.802Z,11.13
2024-02-24T18:38:35.560Z,7.20
2024-02-24T18:41:02.667Z,8.35
2024-02-24T18:43:29.264Z,6.75
2024-02-24T18:45:56.830Z,9.10
2024-02-24T18:48:23.617Z,11.88
2024-02-24T18:50:50.393Z,9.77
2024-02-24T18:53:17.122Z,11.90
2024-02-24T18:55:43.897Z,11.07
2024-02-24T18:58:10.598Z,10.50
2024-02-24T19:00:37.311Z,7.00
2024-02-24T19:03:04.903Z,10.77
2024-02-24T19:05:32.284Z,13.15
2024-02-24T19:07:59.070Z,11.13
2024-02-24T19:10:25.848Z,13.18
2024-02-24T19:12:53.024Z,16.95
2024-02-24T19:15:20.027Z,11.48
2024-02-24T19:17:46.993Z,13.80
2024-02-24T19:20:14.246Z,15.38
2024-02-24T19:22:41.048Z,14.30
2024-02-24T19:25:08.671Z,17.15
2024-02-24T19:27:35.381Z,13.52
2024-02-24T19:30:04.685Z,14.00
2024-02-24T19:32:31.743Z,13.57
2024-02-24T19:34:58.676Z,10.63
2024-02-24T19:37:25.417Z,13.98
2024-02-24T19:39:55.129Z,16.75
2024-02-24T19:42:22.090Z,12.93
2024-02-24T19:44:48.828Z,9.30
2024-02-24T19:47:15.598Z,10.40
2024-02-24T19:49:42.386Z,10.70
2024-02-24T19:52:09.139Z,9.07
2024-02-24T19:54:36.219Z,10.90
2024-02-24T19:57:03.161Z,10.23
2024-02-24T19:59:30.175Z,9.38
2024-02-24T20:02:00.619Z,9.73
2024-02-24T20:04:27.828Z,8.50
2024-02-24T20:06:54.690Z,8.55
2024-02-24T20:09:23.451Z,7.05
2024-02-24T20:11:50.181Z,7.68
2024-02-24T20:14:19.557Z,8.68
2024-02-24T20:16:46.560Z,10.07
2024-02-24T20:19:13.500Z,6.57
2024-02-24T20:21:42.507Z,6.47
2024-02-24T20:24:09.761Z,5.80
2024-02-24T20:26:36.396Z,6.28
2024-02-24T20:29:06.015Z,6.32
2024-02-24T20:31:36.699Z,7.22
2024-02-24T20:34:08.100Z,7.50
2024-02-24T20:36:35.858Z,7.07
2024-02-24T20:39:02.819Z,11.23
2024-02-24T20:41:30.486Z,4.05
2024-02-24T20:43:59.132Z,3.55
2024-02-24T20:46:25.852Z,7.82
2024-02-24T20:48:52.769Z,6.40
2024-02-24T20:51:19.483Z,4.13
2024-02-24T20:53:46.722Z,6.38
2024-02-24T20:56:13.549Z,5.35
2024-02-24T20:58:40.270Z,4.32
2024-02-24T21:01:07.231Z,6.78
2024-02-24T21:03:34.539Z,4.93
2024-02-24T21:06:01.645Z,8.63
2024-02-24T21:08:28.597Z,4.15
2024-02-24T21:10:55.829Z,7.45
2024-02-24T21:13:22.588Z,5.93
2024-02-24T21:15:49.257Z,7.90
2024-02-24T21:18:16.108Z,5.95
2024-02-24T21:20:43.089Z,6.40
2024-02-24T21:23:09.805Z,4.07
2024-02-24T21:25:36.457Z,6.88
2024-02-24T21:28:07.655Z,7.00
2024-02-24T21:30:34.971Z,6.45
2024-02-24T21:33:01.863Z,7.45
2024-02-24T21:35:33.467Z,6.15
2024-02-24T21:38:01.123Z,6.97
2024-02-24T21:40:27.863Z,4.57
2024-02-24T21:42:54.716Z,5.20
2024-02-24T21:45:21.493Z,3.58
2024-02-24T21:47:48.278Z,4.25
2024-02-24T21:50:15.083Z,5.03
2024-02-24T21:52:41.913Z,5.10
2024-02-24T21:55:09.103Z,3.33
2024-02-24T21:57:35.820Z,4.50
2024-02-24T22:00:02.808Z,4.40
2024-02-24T22:02:30.148Z,8.73
2024-02-24T22:04:56.954Z,4.10
2024-02-24T22:07:25.448Z,5.57
2024-02-24T22:09:52.153Z,3.70
2024-02-24T22:12:18.847Z,7.05
2024-02-24T22:14:45.677Z,4.50
2024-02-24T22:17:12.628Z,5.72
2024-02-24T22:19:39.394Z,2.70
2024-02-24T22:22:06.303Z,3.42
2024-02-24T22:24:36.778Z,6.50
2024-02-24T22:27:03.735Z,10.35
2024-02-24T22:29:30.608Z,3.85
2024-02-24T22:31:57.423Z,3.85
2024-02-24T22:34:24.201Z,4.13
2024-02-24T22:36:52.872Z,6.22
2024-02-24T22:39:19.672Z,4.60
2024-02-24T22:41:47.819Z,5.43
2024-02-24T22:44:14.984Z,3.45
2024-02-24T22:46:42.067Z,3.58
2024-02-24T22:49:08.844Z,5.15
2024-02-24T22:51:35.947Z,6.38
2024-02-24T22:54:02.893Z,3.80
2024-02-24T22:56:31.063Z,3.10
2024-02-24T22:59:01.713Z,7.80
2024-02-24T23:01:29.129Z,4.13
2024-02-24T23:03:58.415Z,4.43
2024-02-24T23:06:25.210Z,5.60
2024-02-24T23:08:52.105Z,3.83
2024-02-24T23:11:29.207Z,5.65
2024-02-24T23:14:00.480Z,6.25
2024-02-24T23:16:29.074Z,6.50
2024-02-24T23:18:58.976Z,3.53
2024-02-24T23:21:30.086Z,5.35
2024-02-24T23:23:57.999Z,5.10
2024-02-24T23:26:24.849Z,8.30
2024-02-24T23:28:51.676Z,5.75
2024-02-24T23:31:18.599Z,7.15
2024-02-24T23:33:45.698Z,4.38
2024-02-24T23:36:12.812Z,5.55
2024-02-24T23:38:40.072Z,5.30
2024-02-24T23:41:06.793Z,4.38
2024-02-24T23:43:38.617Z,4.40
2024-02-24T23:46:11.696Z,7.80
2024-02-24T23:48:43.374Z,4.13
2024-02-24T23:51:10.408Z,4.60
2024-02-24T23:53:38.803Z,9.50
2024-02-24T23:56:05.749Z,8.32
2024-02-24T23:58:33.676Z,5.07
